Time;durP1;ratioP1;P1;durP2;ratioP2;P2;SDS_P1;SDS_P2;PMS_P1;PMS_P2;Temp;Humidity;BMP_temperature;BMP_pressure;BME280_temperature;BME280_humidity;BME280_pressure;Samples;Min_cycle;Max_cycle;Signal;HPM_P1;HPM_P2
2024/03/26 00:00:10;;;;;;;4.20;3.60;;;;;;;5.57;80.36;98790.95;105634;1254;61263;-78
2024/03/26 00:02:38;;;;;;;3.90;3.50;;;;;;;5.55;80.38;98789.84;105717;1254;66001;-79
2024/03/26 00:05:08;;;;;;;4.30;3.50;;;;;;;5.55;80.35;98792.13;105927;1254;61314;-78
2024/03/26 00:07:35;;;;;;;4.00;3.60;;;;;;;5.55;80.44;98790.75;105842;1253;64746;-78
2024/03/26 00:10:03;;;;;;;3.60;3.20;;;;;;;5.55;80.45;98794.26;105653;1259;61281;-79
2024/03/26 00:12:30;;;;;;;4.70;3.70;;;;;;;5.55;80.41;98793.54;105957;1254;61243;-79
2024/03/26 00:14:57;;;;;;;4.00;3.40;;;;;;;5.54;80.41;98791.34;105695;1254;72778;-79
2024/03/26 00:17:24;;;;;;;4.50;3.60;;;;;;;5.54;80.40;98790.14;105888;1253;61358;-79
2024/03/26 00:19:50;;;;;;;5.40;3.70;;;;;;;5.53;80.42;98795.95;105853;1254;63836;-78
2024/03/26 00:22:17;;;;;;;4.90;4.00;;;;;;;5.53;80.47;98803.48;105814;1254;61322;-80
2024/03/26 00:24:44;;;;;;;4.50;3.80;;;;;;;5.52;80.51;98805.30;105963;1253;61266;-79
2024/03/26 00:27:11;;;;;;;4.80;4.00;;;;;;;5.52;80.44;98804.67;105715;1252;65837;-79
2024/03/26 00:29:38;;;;;;;4.00;3.60;;;;;;;5.51;80.50;98808.02;105811;1254;61326;-79
2024/03/26 00:32:04;;;;;;;4.60;4.20;;;;;;;5.52;80.42;98813.02;105835;1253;63881;-79
2024/03/26 00:34:31;;;;;;;5.00;4.50;;;;;;;5.53;80.47;98805.60;105892;1254;61235;-78
2024/03/26 00:36:58;;;;;;;4.80;4.00;;;;;;;5.54;80.47;98799.43;105940;1254;61279;-78
2024/03/26 00:39:24;;;;;;;4.90;4.30;;;;;;;5.54;80.51;98793.62;105915;1256;66104;-78
2024/03/26 00:41:51;;;;;;;4.70;4.10;;;;;;;5.54;80.44;98793.98;105766;1254;61349;-78
2024/03/26 00:44:19;;;;;;;4.60;4.00;;;;;;;5.54;80.41;98800.64;105827;1254;62594;-78
2024/03/26 00:46:45;;;;;;;4.90;4.10;;;;;;;5.53;80.39;98809.73;105731;1259;62892;-79
2024/03/26 00:49:12;;;;;;;4.60;4.20;;;;;;;5.53;80.44;98815.34;105965;1253;61250;-79
2024/03/26 00:51:44;;;;;;;6.10;4.70;;;;;;;5.54;80.51;98818.07;105763;1253;66026;-78
2024/03/26 00:54:11;;;;;;;5.70;4.70;;;;;;;5.56;80.50;98823.14;105814;1254;61120;-78
2024/03/26 00:56:39;;;;;;;5.70;4.70;;;;;;;5.57;80.52;98825.69;106025;1253;63962;-78
2024/03/26 00:59:06;;;;;;;5.30;4.60;;;;;;;5.57;80.58;98826.15;105973;1254;61364;-78
2024/03/26 01:01:32;;;;;;;5.70;4.80;;;;;;;5.58;80.54;98822.25;106002;1253;61301;-79
2024/03/26 01:03:59;;;;;;;5.50;4.50;;;;;;;5.59;80.58;98820.22;106023;1256;65871;-79
2024/03/26 01:06:26;;;;;;;6.30;4.70;;;;;;;5.60;80.53;98823.34;105958;1254;61227;-79
2024/03/26 01:08:53;;;;;;;6.10;4.90;;;;;;;5.60;80.57;98825.56;106012;1254;63839;-78
2024/03/26 01:11:19;;;;;;;5.70;4.70;;;;;;;5.61;80.61;98827.80;105741;1256;61188;-78
2024/03/26 01:13:46;;;;;;;5.60;4.70;;;;;;;5.60;80.50;98833.10;105740;1254;61371;-78
2024/03/26 01:16:17;;;;;;;5.10;4.60;;;;;;;5.58;80.51;98836.94;105939;1254;64542;-79
2024/03/26 01:18:44;;;;;;;5.70;4.90;;;;;;;5.56;80.50;98834.09;106092;1254;61274;-79
2024/03/26 01:21:11;;;;;;;6.30;5.10;;;;;;;5.57;80.52;98833.02;107765;1252;63964;-78
2024/03/26 01:23:38;;;;;;;5.50;4.90;;;;;;;5.58;80.61;98833.98;109505;1252;59456;-78
2024/03/26 01:26:04;;;;;;;6.70;5.20;;;;;;;5.58;80.57;98835.48;107330;1254;61153;-78
2024/03/26 01:28:31;;;;;;;6.30;4.90;;;;;;;5.59;80.55;98833.17;105957;1256;65872;-79
2024/03/26 01:30:57;;;;;;;4.90;4.40;;;;;;;5.60;80.54;98834.36;105999;1252;61358;-80
2024/03/26 01:33:28;;;;;;;5.70;4.40;;;;;;;5.60;80.50;98838.54;105815;1254;62823;-79
2024/03/26 01:35:54;;;;;;;6.30;4.50;;;;;;;5.60;80.49;98837.99;105765;1253;61328;-77
2024/03/26 01:38:21;;;;;;;5.70;4.60;;;;;;;5.59;80.46;98835.48;105700;1254;61285;-78
2024/03/26 01:40:47;;;;;;;6.60;5.40;;;;;;;5.58;80.49;98835.03;105759;1254;61352;-78
2024/03/26 01:43:15;;;;;;;6.00;4.80;;;;;;;5.58;80.53;98834.29;105775;1253;61233;-78
2024/03/26 01:45:42;;;;;;;6.80;5.20;;;;;;;5.58;80.46;98838.53;105813;1260;63894;-78
2024/03/26 01:48:09;;;;;;;5.80;5.20;;;;;;;5.57;80.46;98846.25;105656;1257;61156;-78
2024/03/26 01:50:36;;;;;;;5.50;5.00;;;;;;;5.57;80.57;98852.55;105783;1253;61346;-78
2024/03/26 01:53:04;;;;;;;6.50;5.50;;;;;;;5.57;80.56;98852.75;105765;1259;65884;-78
2024/03/26 01:55:30;;;;;;;6.50;5.40;;;;;;;5.55;80.50;98856.20;105841;1257;61284;-79
2024/03/26 01:57:58;;;;;;;5.80;4.80;;;;;;;5.56;80.49;98864.91;105801;1256;63812;-79
2024/03/26 02:00:25;;;;;;;6.10;5.40;;;;;;;5.56;80.47;98873.23;105732;1253;61260;-79
2024/03/26 02:02:52;;;;;;;6.40;5.60;;;;;;;5.57;80.52;98873.90;105569;1252;61241;-77
2024/03/26 02:05:18;;;;;;;6.10;5.50;;;;;;;5.57;80.45;98872.33;105761;1256;65730;-77
2024/03/26 02:07:45;;;;;;;6.70;5.80;;;;;;;5.56;80.48;98870.64;105852;1254;61278;-78
2024/03/26 02:10:12;;;;;;;6.90;5.60;;;;;;;5.55;80.52;98875.58;105967;1254;64271;-78
2024/03/26 02:12:39;;;;;;;6.00;5.40;;;;;;;5.54;80.47;98877.04;105815;1254;61432;-78
2024/03/26 02:15:07;;;;;;;7.10;6.30;;;;;;;5.55;80.46;98881.39;105863;1253;61244;-78
2024/03/26 02:17:34;;;;;;;7.40;6.50;;;;;;;5.55;80.61;98887.13;105781;1257;65829;-78
2024/03/26 02:20:01;;;;;;;7.40;5.80;;;;;;;5.55;80.60;98891.30;105928;1256;61181;-78
2024/03/26 02:22:28;;;;;;;6.40;5.50;;;;;;;5.57;80.48;98889.59;105921;1254;64046;-78
2024/03/26 02:24:55;;;;;;;7.50;6.60;;;;;;;5.57;80.43;98889.59;105744;1254;61234;-78
2024/03/26 02:27:21;;;;;;;8.20;6.70;;;;;;;5.55;80.46;98894.31;105563;1254;61275;-78
2024/03/26 02:29:48;;;;;;;8.00;6.60;;;;;;;5.53;80.49;98898.77;105734;1254;65796;-78
2024/03/26 02:32:15;;;;;;;8.20;7.30;;;;;;;5.53;80.48;98899.14;105577;1254;61335;-78
2024/03/26 02:34:41;;;;;;;10.70;7.40;;;;;;;5.54;80.51;98900.85;105729;1254;63852;-78
2024/03/26 02:37:08;;;;;;;7.90;7.10;;;;;;;5.54;80.45;98897.33;105918;1253;61253;-78
2024/03/26 02:39:34;;;;;;;7.70;6.70;;;;;;;5.54;80.45;98903.27;105880;1256;61276;-78
2024/03/26 02:42:01;;;;;;;11.20;7.40;;;;;;;5.52;80.49;98905.53;105932;1256;65856;-78
2024/03/26 02:44:28;;;;;;;10.00;7.20;;;;;;;5.51;80.47;98903.48;105945;1254;61404;-78
2024/03/26 02:46:54;;;;;;;9.60;7.50;;;;;;;5.52;80.54;98904.11;105717;1254;63738;-78
2024/03/26 02:49:21;;;;;;;9.90;8.20;;;;;;;5.52;80.56;98906.77;105706;1256;61199;-78
2024/03/26 02:51:48;;;;;;;8.50;7.30;;;;;;;5.52;80.58;98909.91;105824;1254;61154;-77
2024/03/26 02:54:14;;;;;;;10.00;7.90;;;;;;;5.52;80.54;98914.09;105765;1254;65800;-78
2024/03/26 02:56:41;;;;;;;8.80;7.80;;;;;;;5.52;80.61;98916.00;105901;1254;61272;-77
2024/03/26 02:59:08;;;;;;;9.80;8.20;;;;;;;5.52;80.66;98917.57;105690;1257;64083;-77
2024/03/26 03:01:36;;;;;;;8.90;7.90;;;;;;;5.51;80.62;98921.34;105841;1252;61266;-77
2024/03/26 03:04:03;;;;;;;10.30;8.80;;;;;;;5.51;80.59;98925.23;105735;1260;61244;-77
2024/03/26 03:06:30;;;;;;;9.60;8.10;;;;;;;5.51;80.58;98926.72;105878;1256;66110;-78
2024/03/26 03:08:56;;;;;;;10.50;8.70;;;;;;;5.52;80.64;98928.24;105767;1256;61260;-79
2024/03/26 03:11:23;;;;;;;9.70;8.60;;;;;;;5.54;80.55;98935.41;105600;1254;62570;-78
2024/03/26 03:13:50;;;;;;;9.90;8.50;;;;;;;5.55;80.65;98941.10;105676;1256;61349;-79
2024/03/26 03:16:17;;;;;;;10.00;8.80;;;;;;;5.56;80.63;98945.41;105757;1254;61221;-77
2024/03/26 03:18:44;;;;;;;9.90;8.50;;;;;;;5.55;80.64;98949.96;106030;1256;66221;-77
2024/03/26 03:21:11;;;;;;;11.80;9.30;;;;;;;5.54;80.54;98955.80;105801;1253;61233;-77
2024/03/26 03:23:37;;;;;;;10.50;9.20;;;;;;;5.54;80.61;98960.91;105761;1254;63863;-77
2024/03/26 03:26:04;;;;;;;11.30;9.00;;;;;;;5.54;80.63;98964.03;105885;1254;61276;-77
2024/03/26 03:28:31;;;;;;;10.60;9.20;;;;;;;5.55;80.61;98966.94;105739;1254;61257;-77
2024/03/26 03:30:58;;;;;;;10.60;9.40;;;;;;;5.54;80.68;98971.89;105654;1254;64820;-77
2024/03/26 03:33:24;;;;;;;12.20;8.70;;;;;;;5.55;80.69;98976.02;105712;1254;61301;-77
2024/03/26 03:35:51;;;;;;;12.50;9.20;;;;;;;5.55;80.67;98979.48;105737;1254;63736;-77
2024/03/26 03:38:18;;;;;;;10.60;9.20;;;;;;;5.56;80.68;98982.02;105907;1254;61351;-77
2024/03/26 03:40:45;;;;;;;10.00;8.90;;;;;;;5.57;80.68;98985.09;105708;1259;61395;-77
2024/03/26 03:43:11;;;;;;;11.50;8.80;;;;;;;5.57;80.64;98985.74;105744;1256;65896;-77
2024/03/26 03:45:38;;;;;;;10.80;8.80;;;;;;;5.57;80.68;98985.06;105841;1254;61265;-77
2024/03/26 03:48:05;;;;;;;10.30;8.80;;;;;;;5.58;80.63;98982.56;105780;1259;63713;-79
2024/03/26 03:50:32;;;;;;;11.60;9.40;;;;;;;5.58;80.68;98982.20;105774;1254;61394;-77
2024/03/26 03:52:58;;;;;;;12.20;9.30;;;;;;;5.58;80.63;98987.27;105788;1256;61158;-78
2024/03/26 03:55:25;;;;;;;11.30;9.00;;;;;;;5.58;80.67;98989.89;105738;1259;65921;-77
2024/03/26 03:57:52;;;;;;;11.20;9.00;;;;;;;5.59;80.68;98993.14;105664;1259;61241;-76
2024/03/26 04:00:18;;;;;;;10.30;9.20;;;;;;;5.58;80.70;98993.36;105668;1253;64085;-76
2024/03/26 04:02:45;;;;;;;9.90;8.90;;;;;;;5.58;80.73;98994.91;105671;1254;61274;-77
2024/03/26 04:05:12;;;;;;;10.30;8.80;;;;;;;5.58;80.77;98996.00;105947;1252;61277;-77
2024/03/26 04:07:38;;;;;;;11.70;8.90;;;;;;;5.58;80.76;98997.41;105947;1254;65830;-77
2024/03/26 04:10:07;;;;;;;11.40;9.20;;;;;;;5.58;80.81;98999.81;105854;1253;61282;-77
2024/03/26 04:12:34;;;;;;;11.20;9.60;;;;;;;5.58;80.74;99003.63;106042;1254;62501;-78
2024/03/26 04:15:00;;;;;;;10.40;8.70;;;;;;;5.59;80.82;99004.32;105808;1254;61224;-77
2024/03/26 04:17:27;;;;;;;10.10;8.80;;;;;;;5.58;80.76;99003.67;105712;1254;61333;-77
2024/03/26 04:19:54;;;;;;;10.00;8.90;;;;;;;5.58;80.91;99006.30;105959;1252;64672;-76
2024/03/26 04:22:20;;;;;;;12.80;9.70;;;;;;;5.58;80.81;99006.08;105797;1252;61393;-76
2024/03/26 04:24:47;;;;;;;11.40;9.30;;;;;;;5.59;80.74;99003.45;105825;1254;63809;-74
2024/03/26 04:27:13;;;;;;;10.50;9.00;;;;;;;5.59;80.78;99003.81;105742;1259;61829;-74
2024/03/26 04:29:40;;;;;;;10.90;8.90;;;;;;;5.59;80.83;99013.70;105999;1256;61218;-75
2024/03/26 04:32:06;;;;;;;12.20;9.20;;;;;;;5.59;80.76;99017.36;106016;1256;61162;-75
2024/03/26 04:34:33;;;;;;;10.60;9.00;;;;;;;5.60;80.86;99018.89;105811;1254;61269;-74
2024/03/26 04:37:03;;;;;;;10.10;9.00;;;;;;;5.59;80.86;99021.01;105955;1254;63884;-74
2024/03/26 04:39:30;;;;;;;11.40;9.30;;;;;;;5.60;80.81;99022.91;105987;1253;61262;-75
2024/03/26 04:41:57;;;;;;;11.10;8.80;;;;;;;5.61;80.92;99029.66;105912;1256;61228;-74
2024/03/26 04:44:23;;;;;;;11.80;9.50;;;;;;;5.62;80.89;99029.78;105929;1255;66123;-74
2024/03/26 04:46:50;;;;;;;12.30;9.50;;;;;;;5.62;80.89;99032.90;105938;1254;61246;-75
2024/03/26 04:49:17;;;;;;;10.70;9.00;;;;;;;5.61;80.90;99036.43;105869;1254;63773;-73
2024/03/26 04:51:43;;;;;;;11.00;9.60;;;;;;;5.60;80.95;99039.12;105716;1254;61339;-73
2024/03/26 04:54:10;;;;;;;11.30;9.20;;;;;;;5.60;80.96;99044.59;106012;1253;61251;-72
2024/03/26 04:56:37;;;;;;;17.50;9.70;;;;;;;5.60;80.94;99049.45;105987;1254;65914;-72
2024/03/26 04:59:03;;;;;;;10.40;9.00;;;;;;;5.61;80.96;99054.08;105913;1254;61319;-73
2024/03/26 05:01:30;;;;;;;10.10;8.40;;;;;;;5.61;80.85;99054.95;105664;1254;63897;-73
2024/03/26 05:03:57;;;;;;;11.70;8.40;;;;;;;5.60;80.89;99060.11;105739;1255;61298;-75
2024/03/26 05:06:24;;;;;;;8.20;7.20;;;;;;;5.58;80.86;99063.04;105943;1256;61155;-77
2024/03/26 05:08:50;;;;;;;9.70;7.60;;;;;;;5.56;80.79;99065.81;106149;1254;64608;-78
2024/03/26 05:11:17;;;;;;;8.40;7.20;;;;;;;5.56;80.85;99067.27;107087;1254;61269;-77
2024/03/26 05:13:44;;;;;;;9.20;7.50;;;;;;;5.55;80.91;99073.58;109050;1254;63432;-80
2024/03/26 05:16:11;;;;;;;8.40;7.50;;;;;;;5.56;80.91;99077.73;108113;1254;60453;-77
2024/03/26 05:18:38;;;;;;;9.50;7.70;;;;;;;5.56;80.87;99085.59;105787;1254;61230;-83
2024/03/26 05:21:05;;;;;;;10.60;8.00;;;;;;;5.55;80.76;99087.22;105833;1254;65780;-82
2024/03/26 05:23:31;;;;;;;10.80;7.40;;;;;;;5.55;80.83;99092.77;105883;1256;61152;-79
2024/03/26 05:25:58;;;;;;;7.90;7.10;;;;;;;5.56;80.86;99099.05;105944;1256;63864;-81
2024/03/26 05:28:25;;;;;;;9.50;7.60;;;;;;;5.56;80.83;99106.00;105937;1256;61377;-80
2024/03/26 05:30:52;;;;;;;10.60;8.90;;;;;;;5.56;80.86;99108.65;105763;1255;61202;-80
2024/03/26 05:33:19;;;;;;;9.00;7.70;;;;;;;5.55;80.79;99115.84;105720;1256;66008;-81
2024/03/26 05:35:46;;;;;;;9.20;8.20;;;;;;;5.55;80.76;99117.41;105890;1254;61241;-79
2024/03/26 05:38:13;;;;;;;11.00;8.30;;;;;;;5.55;80.77;99122.29;105828;1257;64006;-72
2024/03/26 05:40:42;;;;;;;8.50;7.10;;;;;;;5.56;80.82;99127.50;105854;1256;61223;-75
2024/03/26 05:43:09;;;;;;;8.10;6.50;;;;;;;5.56;80.88;99133.02;105768;1253;61198;-74
2024/03/26 05:45:36;;;;;;;9.50;7.50;;;;;;;5.57;80.85;99136.30;105796;1256;65848;-72
2024/03/26 05:48:03;;;;;;;9.00;6.80;;;;;;;5.56;80.87;99139.14;105952;1254;61337;-72
2024/03/26 05:50:30;;;;;;;9.00;7.10;;;;;;;5.55;80.81;99135.96;105783;1256;64033;-73
2024/03/26 05:52:59;;;;;;;8.20;7.20;;;;;;;5.55;80.83;99145.23;105972;1254;61231;-70
2024/03/26 05:55:26;;;;;;;8.60;7.40;;;;;;;5.55;80.87;99148.84;105797;1257;61247;-71
2024/03/26 05:57:53;;;;;;;21.50;18.30;;;;;;;5.57;80.91;99156.02;105862;1257;65967;-84
2024/03/26 06:00:20;;;;;;;11.10;9.00;;;;;;;5.58;80.92;99165.55;105970;1255;62256;-76
2024/03/26 06:02:47;;;;;;;8.90;7.20;;;;;;;5.59;80.89;99167.73;106008;1255;62709;-75
2024/03/26 06:05:14;;;;;;;10.10;7.20;;;;;;;5.60;80.89;99168.02;105988;1254;61241;-73
2024/03/26 06:07:41;;;;;;;8.50;6.70;;;;;;;5.61;80.92;99175.09;105603;1254;61246;-72
2024/03/26 06:10:08;;;;;;;9.40;6.40;;;;;;;5.62;80.91;99177.14;105938;1256;65739;-72
2024/03/26 06:12:36;;;;;;;7.00;6.20;;;;;;;5.63;80.92;99183.16;105867;1254;61269;-72
2024/03/26 06:15:04;;;;;;;7.50;6.30;;;;;;;5.62;80.87;99188.83;106014;1254;65974;-73
2024/03/26 06:17:32;;;;;;;7.30;6.50;;;;;;;5.62;80.90;99188.10;106657;1258;62533;-72
2024/03/26 06:19:58;;;;;;;8.20;6.60;;;;;;;5.64;80.94;99191.10;106000;1253;61269;-72
2024/03/26 06:22:25;;;;;;;7.50;6.60;;;;;;;5.66;80.99;99196.20;105828;1254;65782;-72
2024/03/26 06:24:53;;;;;;;7.50;6.40;;;;;;;5.67;80.94;99202.68;105686;1257;61257;-72
2024/03/26 06:27:19;;;;;;;8.00;6.80;;;;;;;5.68;80.93;99205.27;105942;1254;63848;-73
2024/03/26 06:29:46;;;;;;;7.90;6.60;;;;;;;5.68;80.98;99208.20;105805;1254;61326;-73
2024/03/26 06:32:13;;;;;;;7.70;6.70;;;;;;;5.68;80.94;99207.51;105658;1254;61279;-72
2024/03/26 06:34:39;;;;;;;7.80;6.40;;;;;;;5.69;80.97;99211.67;105643;1254;64646;-72
2024/03/26 06:37:07;;;;;;;7.20;6.10;;;;;;;5.70;80.97;99216.47;105882;1254;61256;-72
2024/03/26 06:39:34;;;;;;;7.40;6.40;;;;;;;5.71;80.97;99218.48;105739;1257;72557;-72
2024/03/26 06:42:01;;;;;;;8.20;6.60;;;;;;;5.71;80.99;99224.59;105724;1254;61128;-72
2024/03/26 06:44:28;;;;;;;8.10;6.80;;;;;;;5.73;81.03;99226.55;106090;1253;61327;-72
2024/03/26 06:46:55;;;;;;;8.90;6.90;;;;;;;5.75;81.05;99230.94;105939;1256;66086;-73
2024/03/26 06:49:22;;;;;;;9.00;6.90;;;;;;;5.78;81.06;99235.80;105985;1254;61282;-73
2024/03/26 06:51:49;;;;;;;9.80;6.40;;;;;;;5.81;81.04;99236.98;105914;1257;63718;-73
2024/03/26 06:54:15;;;;;;;18.70;10.50;;;;;;;5.81;81.08;99237.63;105924;1256;61256;-73
2024/03/26 06:56:42;;;;;;;12.00;8.50;;;;;;;5.82;80.97;99239.52;105789;1253;61246;-72
2024/03/26 06:59:09;;;;;;;8.20;6.10;;;;;;;5.82;81.01;99241.73;105899;1257;65730;-72
2024/03/26 07:01:35;;;;;;;6.00;5.10;;;;;;;5.83;81.02;99247.10;106158;1256;61089;-72
2024/03/26 07:04:02;;;;;;;6.40;5.60;;;;;;;5.85;81.04;99250.63;107129;1254;63266;-71
2024/03/26 07:06:30;;;;;;;5.60;5.00;;;;;;;5.87;81.09;99254.27;105976;1257;61332;-71
2024/03/26 07:08:57;;;;;;;5.80;4.90;;;;;;;5.89;81.06;99261.48;105803;1254;61362;-70
2024/03/26 07:11:24;;;;;;;6.20;4.90;;;;;;;5.90;81.08;99264.41;105853;1254;66494;-72
2024/03/26 07:13:51;;;;;;;5.90;4.60;;;;;;;5.91;81.01;99265.38;105753;1258;61228;-70
2024/03/26 07:16:17;;;;;;;6.30;3.90;;;;;;;5.92;80.95;99269.50;105990;1257;74058;-70
2024/03/26 07:18:44;;;;;;;4.60;4.20;;;;;;;5.91;80.92;99274.60;106076;1256;61266;-70
2024/03/26 07:21:14;;;;;;;7.40;6.10;;;;;;;5.92;80.94;99277.90;105917;1257;61203;-73
2024/03/26 07:23:41;;;;;;;4.90;3.70;;;;;;;5.93;80.90;99285.10;105937;1257;67646;-73
2024/03/26 07:26:08;;;;;;;4.90;3.90;;;;;;;5.94;80.95;99286.39;105904;1256;61263;-71
2024/03/26 07:28:35;;;;;;;5.40;4.20;;;;;;;5.96;80.96;99288.34;105997;1256;72853;-71
2024/03/26 07:31:06;;;;;;;3.80;3.40;;;;;;;5.98;80.99;99292.06;106005;1254;61230;-71
2024/03/26 07:33:32;;;;;;;5.40;3.90;;;;;;;6.00;80.90;99292.80;105976;1253;61241;-71
2024/03/26 07:35:59;;;;;;;5.10;3.70;;;;;;;6.01;80.98;99295.66;105962;1255;66601;-71
2024/03/26 07:38:26;;;;;;;4.50;3.50;;;;;;;6.02;80.94;99296.97;106012;1257;61310;-71
2024/03/26 07:40:52;;;;;;;4.20;3.20;;;;;;;6.03;80.89;99298.66;105963;1256;65519;-71
2024/03/26 07:43:19;;;;;;;5.00;4.10;;;;;;;6.04;80.87;99301.37;105842;1254;61206;-71
2024/03/26 07:45:50;;;;;;;4.50;3.20;;;;;;;6.07;80.85;99304.15;105940;1256;61187;-71
2024/03/26 07:48:17;;;;;;;5.00;3.40;;;;;;;6.06;80.82;99303.30;105728;1259;67734;-70
2024/03/26 07:50:43;;;;;;;4.60;3.80;;;;;;;6.07;80.94;99308.98;105944;1256;66628;-71
2024/03/26 07:53:10;;;;;;;6.00;4.10;;;;;;;6.08;80.92;99309.83;105832;1254;65765;-71
2024/03/26 07:55:37;;;;;;;3.10;2.60;;;;;;;6.10;80.96;99308.46;106033;1257;61177;-71
2024/03/26 07:58:04;;;;;;;3.40;3.00;;;;;;;6.10;80.89;99310.56;106010;1256;61327;-71
2024/03/26 08:00:32;;;;;;;5.00;3.20;;;;;;;6.10;80.82;99315.76;105982;1257;67839;-70
2024/03/26 08:02:58;;;;;;;4.20;3.40;;;;;;;6.12;80.85;99317.52;105951;1256;61332;-70
2024/03/26 08:05:25;;;;;;;3.50;2.90;;;;;;;6.13;80.84;99320.77;105932;1254;65992;-71
2024/03/26 08:07:55;;;;;;;5.00;3.30;;;;;;;6.14;80.75;99323.34;105840;1256;61457;-72
2024/03/26 08:10:22;;;;;;;3.70;2.90;;;;;;;6.12;80.68;99330.63;106009;1256;61247;-72
2024/03/26 08:12:48;;;;;;;3.30;2.80;;;;;;;6.13;80.57;99335.65;105903;1256;67522;-73
2024/03/26 08:15:17;;;;;;;3.70;2.60;;;;;;;6.13;80.58;99334.91;105990;1257;61301;-70
2024/03/26 08:17:44;;;;;;;4.10;2.90;;;;;;;6.13;80.58;99338.63;106027;1257;65831;-71
2024/03/26 08:20:11;;;;;;;3.50;2.70;;;;;;;6.14;80.54;99347.14;105985;1257;61273;-70
2024/03/26 08:22:41;;;;;;;4.60;3.00;;;;;;;6.15;80.54;99349.77;106021;1254;61141;-71
2024/03/26 08:25:09;;;;;;;4.10;3.00;;;;;;;6.18;80.55;99355.73;105988;1256;67593;-70
2024/03/26 08:27:36;;;;;;;3.50;2.70;;;;;;;6.19;80.51;99360.38;105977;1256;61288;-70
2024/03/26 08:30:03;;;;;;;4.10;2.60;;;;;;;6.19;80.47;99363.88;105968;1257;65962;-70
2024/03/26 08:32:32;;;;;;;3.70;2.40;;;;;;;6.19;80.41;99365.95;106045;1254;61176;-69
2024/03/26 08:34:59;;;;;;;3.10;2.20;;;;;;;6.17;80.34;99367.63;105978;1254;61323;-70
2024/03/26 08:37:26;;;;;;;3.20;2.30;;;;;;;6.17;80.25;99373.06;105953;1254;67796;-70
2024/03/26 08:39:53;;;;;;;5.60;2.50;;;;;;;6.18;80.33;99374.75;106069;1256;61243;-69
2024/03/26 08:42:20;;;;;;;3.80;2.50;;;;;;;6.20;80.33;99375.63;105870;1256;63314;-69
2024/03/26 08:44:46;;;;;;;3.20;2.50;;;;;;;6.23;80.42;99379.73;105941;1256;61269;-69
2024/03/26 08:47:13;;;;;;;2.60;2.40;;;;;;;6.26;80.37;99379.33;105938;1256;61246;-71
2024/03/26 08:49:40;;;;;;;2.30;1.90;;;;;;;6.28;80.39;99381.00;105978;1258;65452;-70
2024/03/26 08:52:07;;;;;;;3.70;2.10;;;;;;;6.29;80.47;99379.66;105927;1256;61343;-70
2024/03/26 08:54:34;;;;;;;2.60;2.10;;;;;;;6.30;80.42;99379.59;105900;1253;64736;-70
2024/03/26 08:57:01;;;;;;;2.50;2.00;;;;;;;6.33;80.37;99378.17;105952;1255;61447;-70
2024/03/26 08:59:28;;;;;;;2.90;2.30;;;;;;;6.36;80.51;99379.29;106013;1254;61282;-71
2024/03/26 09:01:55;;;;;;;2.30;1.80;;;;;;;6.41;80.55;99382.61;105922;1256;67999;-72
2024/03/26 09:04:21;;;;;;;1.90;1.70;;;;;;;6.44;80.51;99386.73;105859;1256;61331;-71
2024/03/26 09:06:50;;;;;;;2.80;2.00;;;;;;;6.46;80.52;99390.25;106316;1257;73144;-73
2024/03/26 09:09:19;;;;;;;1.90;1.50;;;;;;;6.49;80.46;99391.08;105888;1254;61153;-71
2024/03/26 09:11:45;;;;;;;2.50;1.70;;;;;;;6.51;80.44;99394.03;106041;1255;61237;-71
2024/03/26 09:14:12;;;;;;;1.70;1.60;;;;;;;6.54;80.54;99395.52;105996;1257;67796;-72
2024/03/26 09:16:39;;;;;;;2.00;1.60;;;;;;;6.59;80.62;99398.45;106036;1257;61290;-71
2024/03/26 09:19:06;;;;;;;2.00;1.60;;;;;;;6.64;80.48;99399.15;105809;1255;64697;-71
2024/03/26 09:21:33;;;;;;;2.50;1.90;;;;;;;6.66;80.40;99396.02;105820;1253;62585;-71
2024/03/26 09:23:59;;;;;;;2.00;1.70;;;;;;;6.69;80.42;99397.20;105991;1254;61275;-71
2024/03/26 09:26:26;;;;;;;2.10;1.90;;;;;;;6.72;80.33;99400.73;106067;1253;67792;-71
2024/03/26 09:28:53;;;;;;;3.10;1.80;;;;;;;6.75;80.22;99405.05;106022;1257;61273;-71
2024/03/26 09:31:19;;;;;;;2.20;1.70;;;;;;;6.80;80.22;99402.27;105957;1258;63564;-71
2024/03/26 09:33:46;;;;;;;2.10;1.90;;;;;;;6.84;80.26;99406.64;105879;1254;61319;-71
2024/03/26 09:36:13;;;;;;;1.90;1.60;;;;;;;6.86;80.29;99405.58;105959;1254;61128;-71
2024/03/26 09:38:39;;;;;;;1.80;1.50;;;;;;;6.87;80.16;99406.20;105975;1257;76212;-71
2024/03/26 09:41:17;;;;;;;2.20;1.60;;;;;;;6.89;80.04;99404.49;105954;1254;61700;-71
2024/03/26 09:43:43;;;;;;;2.60;1.60;;;;;;;6.91;80.01;99408.89;105725;1258;65686;-71
2024/03/26 09:46:12;;;;;;;2.20;1.60;;;;;;;6.93;80.04;99409.27;105956;1254;61306;-71
2024/03/26 09:48:39;;;;;;;2.20;1.60;;;;;;;6.94;79.99;99411.27;106038;1255;61259;-71
2024/03/26 09:51:06;;;;;;;2.70;1.60;;;;;;;6.96;80.03;99414.45;105962;1264;67853;-71
2024/03/26 09:53:33;;;;;;;2.70;1.80;;;;;;;6.99;80.00;99416.17;105977;1256;61276;-71
2024/03/26 09:55:59;;;;;;;2.20;1.60;;;;;;;7.02;79.98;99417.83;105999;1256;65746;-70
2024/03/26 09:58:26;;;;;;;2.10;1.80;;;;;;;7.05;80.01;99418.07;106033;1257;61278;-71
2024/03/26 10:00:53;;;;;;;4.40;1.80;;;;;;;7.09;79.99;99424.07;105744;1254;61615;-71
2024/03/26 10:03:20;;;;;;;1.90;1.70;;;;;;;7.12;79.86;99425.36;105543;1254;66438;-71
2024/03/26 10:05:47;;;;;;;2.80;2.00;;;;;;;7.15;79.83;99427.05;105856;1257;61254;-72
2024/03/26 10:08:14;;;;;;;1.90;1.70;;;;;;;7.19;79.89;99424.66;105643;1255;65880;-71
2024/03/26 10:10:41;;;;;;;1.90;1.60;;;;;;;7.20;79.69;99429.48;105834;1253;61397;-70
2024/03/26 10:13:11;;;;;;;2.00;1.70;;;;;;;7.20;79.54;99436.16;105887;1253;61154;-71
2024/03/26 10:15:38;;;;;;;2.30;2.10;;;;;;;7.21;79.59;99441.17;105907;1254;75036;-71
2024/03/26 10:18:06;;;;;;;3.20;1.90;;;;;;;7.22;79.51;99439.52;105891;1257;61327;-71
2024/03/26 10:20:33;;;;;;;2.00;1.80;;;;;;;7.22;79.47;99440.57;105398;1260;63257;-71
2024/03/26 10:23:09;;;;;;;3.00;2.10;;;;;;;7.22;79.48;99446.69;105763;1256;61216;-71
2024/03/26 10:25:35;;;;;;;2.50;1.70;;;;;;;7.26;79.56;99447.95;105897;1256;61231;-71
2024/03/26 10:28:02;;;;;;;2.20;1.80;;;;;;;7.26;79.38;99449.13;105966;1256;67919;-71
2024/03/26 10:30:29;;;;;;;2.60;1.90;;;;;;;7.27;79.47;99457.34;105829;1255;61332;-71
2024/03/26 10:32:57;;;;;;;2.40;1.80;;;;;;;7.29;79.46;99459.38;105957;1256;65738;-71
2024/03/26 10:35:25;;;;;;;2.20;1.90;;;;;;;7.33;79.37;99461.86;105931;1257;61250;-69
2024/03/26 10:37:56;;;;;;;3.10;1.90;;;;;;;7.37;79.36;99461.34;105965;1257;61346;-70
2024/03/26 10:40:39;;;;;;;2.20;1.90;;;;;;;7.41;79.30;99461.36;105750;1257;67875;-69
2024/03/26 10:43:06;;;;;;;3.90;1.80;;;;;;;7.45;79.38;99463.33;105800;1259;61347;-69
2024/03/26 10:45:33;;;;;;;1.90;1.70;;;;;;;7.49;79.23;99463.38;105776;1259;64612;-70
2024/03/26 10:48:20;;;;;;;2.90;2.10;;;;;;;7.53;79.22;99463.42;105712;1252;61212;-70
2024/03/26 10:50:47;;;;;;;3.20;2.10;;;;;;;7.57;79.27;99462.92;105799;1255;61336;-71
2024/03/26 10:53:14;;;;;;;2.40;1.90;;;;;;;7.59;79.17;99467.45;105821;1257;67750;-71
2024/03/26 10:55:43;;;;;;;2.90;1.80;;;;;;;7.60;79.04;99467.34;105915;1257;61148;-71
2024/03/26 10:58:09;;;;;;;3.10;1.90;;;;;;;7.60;78.97;99462.98;106013;1256;63643;-70
2024/03/26 11:00:38;;;;;;;4.70;1.70;;;;;;;7.60;78.85;99467.87;106006;1256;61378;-70
2024/03/26 11:03:06;;;;;;;2.40;1.60;;;;;;;7.60;78.83;99470.22;106012;1257;61173;-70
2024/03/26 11:05:33;;;;;;;2.10;1.90;;;;;;;7.61;78.80;99472.94;105907;1252;67819;-71
2024/03/26 11:08:00;;;;;;;2.80;2.00;;;;;;;7.62;78.75;99471.77;105811;1254;61262;-72
2024/03/26 11:10:27;;;;;;;2.30;1.80;;;;;;;7.63;78.69;99475.88;105714;1254;64952;-71
2024/03/26 11:12:57;;;;;;;2.50;1.70;;;;;;;7.64;78.62;99477.39;105836;1256;61170;-70
2024/03/26 11:15:31;;;;;;;2.00;1.70;;;;;;;7.64;78.58;99479.83;105958;1256;61645;-71
2024/03/26 11:18:00;;;;;;;2.40;1.90;;;;;;;7.63;78.49;99483.11;105829;1254;65652;-68
2024/03/26 11:20:28;;;;;;;3.20;2.00;;;;;;;7.62;78.39;99485.47;105986;1254;61911;-71
2024/03/26 11:23:05;;;;;;;2.40;2.00;;;;;;;7.60;78.37;99487.90;105888;1256;73907;-69
2024/03/26 11:25:33;;;;;;;2.40;1.80;;;;;;;7.58;78.23;99489.33;105958;1254;61170;-70
2024/03/26 11:28:01;;;;;;;2.30;2.10;;;;;;;7.58;78.26;99488.41;105770;1252;61277;-70
2024/03/26 11:30:28;;;;;;;4.90;2.00;;;;;;;7.59;78.19;99490.27;105950;1255;67642;-70